Time;durP1;ratioP1;P1;durP2;ratioP2;P2;SDS_P1;SDS_P2;PMS_P1;PMS_P2;Temp;Humidity;BMP_temperature;BMP_pressure;BME280_temperature;BME280_humidity;BME280_pressure;Samples;Min_cycle;Max_cycle;Signal;HPM_P1;HPM_P2
2022/10/19 00:01:13;;;;;;;;;9.67;9.00;;;;;;;;5063317;28;61724;-77
2022/10/19 00:03:39;;;;;;;;;11.75;10.00;;;;;;;;5063708;28;62011;-77
2022/10/19 00:06:12;;;;;;;;;11.25;10.00;;;;;;;;5062313;28;62792;-77
2022/10/19 00:08:38;;;;;;;;;8.75;5.50;;;;;;;;5063609;28;61811;-77
2022/10/19 00:11:03;;;;;;;;;10.25;10.25;;;;;;;;5062872;28;61896;-77
2022/10/19 00:13:28;;;;;;;;;12.00;8.50;;;;;;;;5063646;28;61986;-77
2022/10/19 00:15:53;;;;;;;;;9.25;9.25;;;;;;;;5062647;28;61991;-77
2022/10/19 00:18:19;;;;;;;;;12.50;9.00;;;;;;;;5062861;28;61834;-77
2022/10/19 00:20:44;;;;;;;;;7.50;5.75;;;;;;;;5044948;28;62041;-78
2022/10/19 00:23:09;;;;;;;;;8.75;6.75;;;;;;;;5045047;28;61803;-77
2022/10/19 00:25:35;;;;;;;;;11.00;9.75;;;;;;;;5062340;28;61895;-78
2022/10/19 00:28:01;;;;;;;;;12.75;8.00;;;;;;;;5044783;28;61882;-77
2022/10/19 00:30:26;;;;;;;;;10.50;8.00;;;;;;;;5063080;28;61745;-77
2022/10/19 00:32:51;;;;;;;;;9.75;8.25;;;;;;;;5029290;28;62088;-77
2022/10/19 00:35:17;;;;;;;;;9.00;7.25;;;;;;;;5042001;28;62779;-77
2022/10/19 00:37:42;;;;;;;;;8.25;6.25;;;;;;;;5042951;28;61793;-77
2022/10/19 00:40:08;;;;;;;;;10.00;7.50;;;;;;;;5024534;28;61980;-78
2022/10/19 00:42:33;;;;;;;;;15.25;6.50;;;;;;;;5042876;28;61943;-77
2022/10/19 00:45:02;;;;;;;;;7.00;6.75;;;;;;;;5041982;28;61890;-77
2022/10/19 00:47:27;;;;;;;;;11.00;8.00;;;;;;;;5042917;28;61775;-78
2022/10/19 00:49:53;;;;;;;;;10.50;7.50;;;;;;;;5023126;28;62388;-77
2022/10/19 00:52:21;;;;;;;;;10.50;9.00;;;;;;;;5042455;28;61897;-79
2022/10/19 00:54:47;;;;;;;;;10.25;8.25;;;;;;;;5023862;28;63618;-77
2022/10/19 00:57:13;;;;;;;;;16.50;9.75;;;;;;;;5044266;28;61727;-77
2022/10/19 00:59:39;;;;;;;;;13.75;9.00;;;;;;;;5062665;28;61844;-77
2022/10/19 01:02:05;;;;;;;;;8.00;7.00;;;;;;;;5062731;28;61845;-77
2022/10/19 01:04:32;;;;;;;;;5.50;5.25;;;;;;;;5061977;28;61676;-78
2022/10/19 01:06:59;;;;;;;;;9.50;7.75;;;;;;;;5062230;28;62036;-78
2022/10/19 01:09:24;;;;;;;;;8.25;8.00;;;;;;;;5044061;28;61923;-77
2022/10/19 01:12:05;;;;;;;;;8.00;7.00;;;;;;;;5044395;28;61977;-78
2022/10/19 01:14:40;;;;;;;;;6.25;5.25;;;;;;;;5061667;28;62000;-78
2022/10/19 01:17:08;;;;;;;;;8.00;6.25;;;;;;;;5044051;28;61914;-78
2022/10/19 01:19:33;;;;;;;;;4.00;4.00;;;;;;;;5062073;28;61809;-77
2022/10/19 01:22:12;;;;;;;;;5.00;5.00;;;;;;;;5062152;28;61963;-77
2022/10/19 01:24:57;;;;;;;;;6.50;5.00;;;;;;;;5061859;28;61758;-77
2022/10/19 01:27:31;;;;;;;;;7.75;6.25;;;;;;;;5043850;28;61755;-78
2022/10/19 01:30:15;;;;;;;;;7.00;5.00;;;;;;;;5044179;28;61773;-77
2022/10/19 01:32:43;;;;;;;;;4.00;4.00;;;;;;;;5056655;28;61854;-77
2022/10/19 01:35:08;;;;;;;;;7.75;7.00;;;;;;;;5041015;28;61821;-77
2022/10/19 01:37:33;;;;;;;;;5.00;5.00;;;;;;;;5041754;28;61794;-77
2022/10/19 01:40:03;;;;;;;;;5.75;5.25;;;;;;;;5042100;28;61692;-77
2022/10/19 01:42:29;;;;;;;;;5.25;4.50;;;;;;;;5041888;28;61759;-77
2022/10/19 01:44:59;;;;;;;;;4.50;4.00;;;;;;;;5023229;28;63792;-77
2022/10/19 01:47:26;;;;;;;;;7.00;5.75;;;;;;;;5041773;28;62222;-78
2022/10/19 01:49:57;;;;;;;;;3.33;3.33;;;;;;;;5023666;28;61810;-78
2022/10/19 01:52:24;;;;;;;;;5.00;4.50;;;;;;;;5041437;28;62283;-77
2022/10/19 01:54:52;;;;;;;;;4.00;4.00;;;;;;;;5041301;28;62744;-77
2022/10/19 01:57:21;;;;;;;;;7.25;5.00;;;;;;;;5054567;28;62018;-78
2022/10/19 01:59:47;;;;;;;;;6.50;5.25;;;;;;;;5062077;28;61841;-77
2022/10/19 02:02:14;;;;;;;;;5.75;4.00;;;;;;;;5065021;28;61901;-78
2022/10/19 02:04:46;;;;;;;;;7.25;4.75;;;;;;;;5064756;28;62681;-78
2022/10/19 02:07:12;;;;;;;;;6.00;5.00;;;;;;;;5064816;28;62067;-78
2022/10/19 02:09:37;;;;;;;;;4.25;3.00;;;;;;;;5065184;28;61809;-78
2022/10/19 02:12:05;;;;;;;;;4.25;4.25;;;;;;;;5047330;28;61950;-78
2022/10/19 02:14:37;;;;;;;;;3.50;3.50;;;;;;;;5064509;28;62659;-78
2022/10/19 02:17:05;;;;;;;;;5.00;3.00;;;;;;;;5046929;28;61791;-78
2022/10/19 02:19:30;;;;;;;;;5.00;4.00;;;;;;;;5064861;28;62055;-77
2022/10/19 02:21:55;;;;;;;;;4.25;3.25;;;;;;;;5064802;28;61890;-78
2022/10/19 02:24:20;;;;;;;;;4.75;4.25;;;;;;;;5064341;28;62770;-78
2022/10/19 02:26:46;;;;;;;;;6.00;5.00;;;;;;;;5046707;28;61684;-78
2022/10/19 02:29:12;;;;;;;;;3.25;3.25;;;;;;;;5065104;28;61671;-78
2022/10/19 02:31:38;;;;;;;;;5.00;5.00;;;;;;;;5064891;28;62334;-78
2022/10/19 02:34:03;;;;;;;;;6.00;4.75;;;;;;;;5047408;28;62501;-78
2022/10/19 02:36:28;;;;;;;;;6.50;4.75;;;;;;;;5044165;28;61972;-77
2022/10/19 02:38:54;;;;;;;;;8.25;6.00;;;;;;;;5044816;28;61964;-78
2022/10/19 02:41:22;;;;;;;;;6.75;4.50;;;;;;;;5044870;28;61987;-78
2022/10/19 02:43:48;;;;;;;;;5.50;4.25;;;;;;;;5043998;28;62047;-78
2022/10/19 02:46:24;;;;;;;;;4.00;4.00;;;;;;;;5026329;28;61755;-78
2022/10/19 02:48:50;;;;;;;;;5.25;4.25;;;;;;;;5044235;28;61869;-78
2022/10/19 02:51:30;;;;;;;;;3.25;3.25;;;;;;;;5044399;28;61923;-78
2022/10/19 02:53:55;;;;;;;;;4.75;4.00;;;;;;;;5043692;28;61888;-77
2022/10/19 02:56:21;;;;;;;;;3.00;3.00;;;;;;;;5044212;28;61785;-78
2022/10/19 02:58:47;;;;;;;;;4.00;3.00;;;;;;;;5043839;28;61865;-78
2022/10/19 03:01:13;;;;;;;;;4.50;3.50;;;;;;;;5046419;28;62452;-78
2022/10/19 03:03:38;;;;;;;;;4.75;3.75;;;;;;;;5063308;28;61920;-78
2022/10/19 03:06:03;;;;;;;;;4.75;4.75;;;;;;;;5064110;28;61731;-78
2022/10/19 03:08:29;;;;;;;;;4.75;3.75;;;;;;;;5046200;28;62088;-78
2022/10/19 03:10:57;;;;;;;;;3.75;3.00;;;;;;;;5064607;28;61664;-78
2022/10/19 03:13:22;;;;;;;;;4.25;4.00;;;;;;;;5062818;28;62061;-78
2022/10/19 03:15:47;;;;;;;;;4.50;3.50;;;;;;;;5064029;28;61722;-78
2022/10/19 03:18:13;;;;;;;;;4.00;4.00;;;;;;;;5064327;28;62181;-77
2022/10/19 03:20:38;;;;;;;;;4.50;4.00;;;;;;;;5063896;28;62167;-78
2022/10/19 03:23:03;;;;;;;;;4.00;4.00;;;;;;;;5045454;28;65206;-78
2022/10/19 03:25:28;;;;;;;;;6.00;5.00;;;;;;;;5064107;28;61817;-78
2022/10/19 03:27:54;;;;;;;;;5.25;4.75;;;;;;;;5063955;28;61864;-78
2022/10/19 03:30:19;;;;;;;;;5.75;2.75;;;;;;;;5064179;28;62062;-78
2022/10/19 03:32:44;;;;;;;;;9.75;7.00;;;;;;;;5062231;28;62894;-78
2022/10/19 03:35:09;;;;;;;;;5.50;4.50;;;;;;;;5043719;28;61803;-77
2022/10/19 03:37:35;;;;;;;;;6.00;5.25;;;;;;;;5043893;28;61968;-78
2022/10/19 03:40:00;;;;;;;;;4.00;4.00;;;;;;;;5043929;28;61885;-78
2022/10/19 03:42:25;;;;;;;;;2.25;2.25;;;;;;;;5043090;28;62154;-78
2022/10/19 03:44:50;;;;;;;;;4.75;3.00;;;;;;;;5043460;28;62053;-78
2022/10/19 03:47:16;;;;;;;;;4.50;4.50;;;;;;;;5043443;28;61864;-78
2022/10/19 03:49:42;;;;;;;;;7.75;5.00;;;;;;;;5025382;28;61816;-78
2022/10/19 03:52:08;;;;;;;;;7.25;5.50;;;;;;;;5042864;28;61755;-78
2022/10/19 03:54:34;;;;;;;;;5.00;4.00;;;;;;;;5043335;28;61811;-78
2022/10/19 03:56:59;;;;;;;;;4.50;4.50;;;;;;;;5025463;28;61906;-78
2022/10/19 03:59:24;;;;;;;;;4.25;4.00;;;;;;;;5059058;28;61894;-77
2022/10/19 04:01:50;;;;;;;;;5.00;3.00;;;;;;;;5062516;28;61995;-78
2022/10/19 04:04:16;;;;;;;;;5.00;4.00;;;;;;;;5063724;28;61647;-78
2022/10/19 04:06:43;;;;;;;;;4.25;4.25;;;;;;;;5045150;28;62053;-78
2022/10/19 04:09:11;;;;;;;;;6.75;6.00;;;;;;;;5045319;28;62067;-78
2022/10/19 04:11:36;;;;;;;;;11.25;5.00;;;;;;;;5062487;28;61692;-78
2022/10/19 04:14:01;;;;;;;;;4.75;4.75;;;;;;;;5063218;28;61966;-78
2022/10/19 04:16:27;;;;;;;;;5.50;4.25;;;;;;;;5044820;28;62225;-78
2022/10/19 04:18:53;;;;;;;;;5.00;4.00;;;;;;;;5045093;28;62204;-78
2022/10/19 04:21:21;;;;;;;;;5.00;5.00;;;;;;;;5062668;28;62754;-78
2022/10/19 04:23:47;;;;;;;;;7.00;5.00;;;;;;;;5062827;28;61961;-78
2022/10/19 04:26:12;;;;;;;;;5.00;5.00;;;;;;;;5063122;28;61714;-78
2022/10/19 04:28:37;;;;;;;;;5.75;3.75;;;;;;;;5045251;28;61996;-78
2022/10/19 04:31:03;;;;;;;;;4.00;4.00;;;;;;;;5062268;28;62208;-78
2022/10/19 04:33:28;;;;;;;;;6.75;6.75;;;;;;;;5060158;28;62047;-78
2022/10/19 04:35:57;;;;;;;;;4.75;4.50;;;;;;;;5042522;28;62025;-78
2022/10/19 04:38:23;;;;;;;;;6.00;4.00;;;;;;;;5025267;28;61871;-78
2022/10/19 04:40:48;;;;;;;;;6.00;6.00;;;;;;;;5042217;28;62543;-78
2022/10/19 04:43:13;;;;;;;;;10.25;7.00;;;;;;;;5042614;28;61842;-77
2022/10/19 04:45:39;;;;;;;;;8.75;5.50;;;;;;;;5024489;28;61924;-78
2022/10/19 04:48:04;;;;;;;;;6.00;6.00;;;;;;;;5042593;28;62064;-78
2022/10/19 04:50:29;;;;;;;;;10.00;5.25;;;;;;;;5023425;28;63710;-78
2022/10/19 04:52:55;;;;;;;;;6.75;6.75;;;;;;;;5042316;28;61895;-78
2022/10/19 04:55:21;;;;;;;;;10.25;6.25;;;;;;;;5024870;28;61978;-78
2022/10/19 04:57:47;;;;;;;;;10.00;5.25;;;;;;;;5042673;28;61741;-78
2022/10/19 05:00:14;;;;;;;;;6.50;5.50;;;;;;;;5051484;28;61914;-78
2022/10/19 05:02:45;;;;;;;;;5.75;4.75;;;;;;;;5044398;28;61993;-78
2022/10/19 05:05:11;;;;;;;;;5.00;4.00;;;;;;;;5043968;28;61972;-77
2022/10/19 05:07:37;;;;;;;;;6.25;4.75;;;;;;;;5062564;28;61963;-77
2022/10/19 05:10:02;;;;;;;;;7.25;4.00;;;;;;;;5033407;28;64720;-78
2022/10/19 05:12:28;;;;;;;;;8.25;8.25;;;;;;;;5042398;28;62012;-80
2022/10/19 05:14:53;;;;;;;;;7.00;5.00;;;;;;;;5042458;28;62046;-81
2022/10/19 05:17:18;;;;;;;;;10.50;7.25;;;;;;;;5042620;28;61810;-80
2022/10/19 05:19:44;;;;;;;;;6.50;5.25;;;;;;;;5041336;28;61841;-81
2022/10/19 05:22:09;;;;;;;;;7.25;5.75;;;;;;;;5042044;28;62192;-80
2022/10/19 05:24:34;;;;;;;;;9.25;5.75;;;;;;;;5042441;28;61703;-79
2022/10/19 05:26:59;;;;;;;;;7.00;5.25;;;;;;;;5042283;28;62012;-80
2022/10/19 05:29:25;;;;;;;;;5.00;5.00;;;;;;;;5023510;28;63893;-80
2022/10/19 05:31:50;;;;;;;;;7.00;6.00;;;;;;;;5042037;28;61866;-80
2022/10/19 05:34:15;;;;;;;;;7.00;5.00;;;;;;;;5024156;28;62030;-79
2022/10/19 05:36:41;;;;;;;;;6.75;5.25;;;;;;;;5044323;28;61934;-79
2022/10/19 05:39:10;;;;;;;;;5.75;4.50;;;;;;;;5026820;28;63603;-79
2022/10/19 05:41:35;;;;;;;;;6.00;5.00;;;;;;;;5045604;28;61723;-79
2022/10/19 05:44:01;;;;;;;;;5.25;5.25;;;;;;;;5027096;28;61790;-79
2022/10/19 05:46:27;;;;;;;;;5.75;5.00;;;;;;;;5027631;28;61745;-79
2022/10/19 05:48:53;;;;;;;;;7.00;6.00;;;;;;;;5044611;28;61895;-80
2022/10/19 05:51:20;;;;;;;;;7.00;6.00;;;;;;;;5044807;28;61858;-81
2022/10/19 05:53:45;;;;;;;;;8.00;7.00;;;;;;;;5026909;28;61936;-80
2022/10/19 05:56:17;;;;;;;;;11.25;8.00;;;;;;;;5045371;28;61750;-80
2022/10/19 05:58:43;;;;;;;;;7.25;6.00;;;;;;;;5026564;28;64387;-80
2022/10/19 06:01:08;;;;;;;;;7.75;7.75;;;;;;;;5062597;28;61988;-80
2022/10/19 06:03:34;;;;;;;;;9.00;7.00;;;;;;;;5065880;28;62212;-85
2022/10/19 06:06:01;;;;;;;;;6.50;5.50;;;;;;;;5068332;28;61788;-81
2022/10/19 06:08:26;;;;;;;;;5.50;5.00;;;;;;;;5047783;28;63759;-81
2022/10/19 06:10:52;;;;;;;;;12.25;7.50;;;;;;;;5047187;28;61786;-81
2022/10/19 06:13:18;;;;;;;;;9.75;5.00;;;;;;;;5046885;28;61907;-79
2022/10/19 06:15:43;;;;;;;;;10.25;8.25;;;;;;;;5047391;28;61684;-80
2022/10/19 06:18:10;;;;;;;;;9.00;6.75;;;;;;;;5046472;28;64707;-80
2022/10/19 06:20:39;;;;;;;;;10.75;8.25;;;;;;;;5064836;28;61739;-80
2022/10/19 06:23:04;;;;;;;;;16.25;10.50;;;;;;;;5047008;28;62219;-77
2022/10/19 06:25:30;;;;;;;;;12.50;10.00;;;;;;;;5065382;28;62268;-78
2022/10/19 06:27:55;;;;;;;;;9.25;8.50;;;;;;;;5052953;28;61846;-78
2022/10/19 06:30:20;;;;;;;;;5.50;5.00;;;;;;;;5026780;28;62477;-78
2022/10/19 06:32:46;;;;;;;;;7.75;6.25;;;;;;;;5045127;28;62171;-78
2022/10/19 06:35:11;;;;;;;;;10.25;8.00;;;;;;;;5049872;28;61763;-78
2022/10/19 06:37:36;;;;;;;;;8.25;5.75;;;;;;;;5032240;28;63470;-80
2022/10/19 06:40:02;;;;;;;;;8.75;6.25;;;;;;;;5034467;28;62106;-79
2022/10/19 06:42:27;;;;;;;;;13.25;12.50;;;;;;;;5034593;28;61857;-78
2022/10/19 06:44:52;;;;;;;;;9.75;9.25;;;;;;;;5028059;28;61732;-79
2022/10/19 06:47:18;;;;;;;;;10.00;7.25;;;;;;;;5041730;28;61906;-79
2022/10/19 06:49:43;;;;;;;;;6.50;6.50;;;;;;;;5025902;28;61972;-79
2022/10/19 06:52:08;;;;;;;;;11.75;8.50;;;;;;;;5043528;28;61746;-80
2022/10/19 06:54:33;;;;;;;;;11.00;8.50;;;;;;;;5025081;28;61934;-79
2022/10/19 06:56:59;;;;;;;;;16.75;10.00;;;;;;;;5024397;28;63786;-79
2022/10/19 06:59:24;;;;;;;;;10.75;7.50;;;;;;;;5044530;28;61928;-76
2022/10/19 07:01:50;;;;;;;;;15.50;13.00;;;;;;;;5064074;28;62165;-78
2022/10/19 07:04:15;;;;;;;;;15.25;11.50;;;;;;;;5064458;28;62202;-78
2022/10/19 07:06:40;;;;;;;;;8.00;5.50;;;;;;;;5045890;28;61890;-77
2022/10/19 07:09:05;;;;;;;;;10.50;10.25;;;;;;;;5042606;28;61943;-77
2022/10/19 07:11:31;;;;;;;;;15.00;7.25;;;;;;;;5024849;28;61924;-78
2022/10/19 07:13:56;;;;;;;;;10.75;9.25;;;;;;;;5025583;28;61956;-77
2022/10/19 07:16:21;;;;;;;;;7.50;7.50;;;;;;;;5024619;28;63795;-78
2022/10/19 07:18:48;;;;;;;;;10.00;8.25;;;;;;;;5043032;28;61677;-77
2022/10/19 07:21:14;;;;;;;;;11.75;8.00;;;;;;;;5025051;28;62317;-78
2022/10/19 07:23:40;;;;;;;;;10.25;8.00;;;;;;;;5043630;28;62006;-78
2022/10/19 07:26:16;;;;;;;;;12.50;8.00;;;;;;;;5041970;28;61920;-78
2022/10/19 07:28:42;;;;;;;;;10.75;9.75;;;;;;;;5025318;28;62005;-78
2022/10/19 07:31:09;;;;;;;;;15.00;9.25;;;;;;;;5043410;28;61677;-78
2022/10/19 07:33:34;;;;;;;;;10.75;9.00;;;;;;;;5043888;28;61884;-78
2022/10/19 07:36:01;;;;;;;;;8.00;8.00;;;;;;;;5031130;28;63769;-78
2022/10/19 07:38:26;;;;;;;;;10.50;8.00;;;;;;;;5025476;28;61784;-78
2022/10/19 07:40:58;;;;;;;;;12.50;6.75;;;;;;;;5022029;28;61838;-78
2022/10/19 07:43:23;;;;;;;;;10.50;8.50;;;;;;;;5023965;28;61976;-79
2022/10/19 07:45:48;;;;;;;;;12.00;10.25;;;;;;;;5022772;28;61693;-79
2022/10/19 07:48:14;;;;;;;;;11.50;10.50;;;;;;;;5022037;28;62064;-79
2022/10/19 07:50:39;;;;;;;;;13.75;11.75;;;;;;;;5023099;28;62076;-78
2022/10/19 07:53:04;;;;;;;;;9.25;8.00;;;;;;;;5021882;28;61717;-78
2022/10/19 07:55:29;;;;;;;;;13.50;11.50;;;;;;;;5021421;28;63867;-78
2022/10/19 07:57:55;;;;;;;;;12.25;10.00;;;;;;;;5021751;28;61780;-79
2022/10/19 08:00:20;;;;;;;;;11.75;9.75;;;;;;;;5032856;28;62003;-77
2022/10/19 08:02:45;;;;;;;;;13.75;10.75;;;;;;;;5063629;28;61655;-79
2022/10/19 08:05:10;;;;;;;;;13.25;9.50;;;;;;;;5044498;28;64918;-78
2022/10/19 08:07:36;;;;;;;;;11.75;10.75;;;;;;;;5063049;28;61710;-78
2022/10/19 08:10:01;;;;;;;;;16.50;12.00;;;;;;;;5045050;28;61751;-78
2022/10/19 08:12:27;;;;;;;;;14.00;11.50;;;;;;;;5044359;28;62176;-79
2022/10/19 08:14:52;;;;;;;;;11.75;11.00;;;;;;;;5046148;28;61698;-79
2022/10/19 08:17:18;;;;;;;;;13.50;13.00;;;;;;;;5042750;28;62048;-78
2022/10/19 08:19:44;;;;;;;;;14.25;10.50;;;;;;;;5024351;28;61993;-82
2022/10/19 08:22:09;;;;;;;;;13.50;11.25;;;;;;;;5043262;28;61796;-82
2022/10/19 08:24:34;;;;;;;;;14.50;10.00;;;;;;;;5024285;28;64622;-82
2022/10/19 08:27:01;;;;;;;;;13.25;13.25;;;;;;;;5024524;28;61949;-81
2022/10/19 08:29:26;;;;;;;;;13.50;12.00;;;;;;;;5043013;28;61832;-82
2022/10/19 08:31:52;;;;;;;;;15.25;12.00;;;;;;;;5042905;28;61743;-83
2022/10/19 08:34:17;;;;;;;;;23.25;13.50;;;;;;;;5024389;28;63659;-83
2022/10/19 08:36:42;;;;;;;;;11.75;11.25;;;;;;;;5042218;28;61832;-82
2022/10/19 08:39:08;;;;;;;;;12.50;9.50;;;;;;;;5024609;28;62135;-82
2022/10/19 08:41:52;;;;;;;;;11.50;10.50;;;;;;;;5043098;28;61726;-82
2022/10/19 08:44:35;;;;;;;;;13.75;11.00;;;;;;;;5024096;28;63875;-82
2022/10/19 08:47:19;;;;;;;;;14.25;12.75;;;;;;;;5042306;28;61793;-82
2022/10/19 08:49:45;;;;;;;;;11.50;10.75;;;;;;;;5024435;28;61950;-82
2022/10/19 08:52:13;;;;;;;;;13.25;11.50;;;;;;;;5024413;28;62324;-81
2022/10/19 08:54:41;;;;;;;;;12.50;8.50;;;;;;;;5041964;28;61813;-82
2022/10/19 08:57:07;;;;;;;;;14.00;10.33;;;;;;;;5024180;28;61792;-81
2022/10/19 08:59:48;;;;;;;;;12.25;11.50;;;;;;;;5042444;28;61784;-82
2022/10/19 09:02:18;;;;;;;;;12.50;10.00;;;;;;;;5024440;28;62053;-81
2022/10/19 09:04:49;;;;;;;;;12.25;10.50;;;;;;;;5041786;28;61708;-82
2022/10/19 09:07:22;;;;;;;;;9.50;7.75;;;;;;;;5023791;28;62132;-82
2022/10/19 09:09:52;;;;;;;;;11.00;11.00;;;;;;;;5042024;28;62022;-82
2022/10/19 09:12:23;;;;;;;;;14.50;12.25;;;;;;;;5023864;28;61733;-82
2022/10/19 09:14:51;;;;;;;;;11.75;10.75;;;;;;;;5023556;28;64274;-82
2022/10/19 09:17:17;;;;;;;;;8.25;7.75;;;;;;;;5041907;28;61918;-82
2022/10/19 09:19:42;;;;;;;;;12.50;10.75;;;;;;;;5041963;28;61877;-82
2022/10/19 09:22:14;;;;;;;;;14.25;9.00;;;;;;;;5041743;28;61671;-81
2022/10/19 09:24:39;;;;;;;;;19.75;14.25;;;;;;;;5041387;28;61759;-82
2022/10/19 09:27:08;;;;;;;;;13.67;12.00;;;;;;;;5041542;28;61892;-81
2022/10/19 09:30:06;;;;;;;;;10.25;6.50;;;;;;;;5042198;28;61901;-82
2022/10/19 09:32:34;;;;;;;;;12.00;11.00;;;;;;;;4941174;28;61841;-82
2022/10/19 09:35:04;;;;;;;;;10.50;7.00;;;;;;;;4939991;28;64533;-81
2022/10/19 09:37:30;;;;;;;;;10.00;9.25;;;;;;;;4941085;28;61973;-81
2022/10/19 09:39:56;;;;;;;;;10.75;9.75;;;;;;;;4941129;28;62040;-81
2022/10/19 09:42:29;;;;;;;;;15.00;10.33;;;;;;;;4940919;28;61960;-82
2022/10/19 09:44:55;;;;;;;;;13.25;9.00;;;;;;;;4940696;28;62941;-81
2022/10/19 09:47:39;;;;;;;;;13.50;9.75;;;;;;;;4940852;28;62241;-81
2022/10/19 09:50:18;;;;;;;;;10.33;9.33;;;;;;;;4924546;28;61982;-82
2022/10/19 09:52:44;;;;;;;;;11.25;7.50;;;;;;;;4924853;28;61854;-82
2022/10/19 09:55:12;;;;;;;;;12.00;8.33;;;;;;;;4939725;28;62042;-82
2022/10/19 09:57:41;;;;;;;;;8.00;6.33;;;;;;;;4941023;28;61763;-82
2022/10/19 10:00:15;;;;;;;;;9.00;7.75;;;;;;;;4924988;28;62007;-81
2022/10/19 10:02:47;;;;;;;;;9.00;8.25;;;;;;;;4954551;28;62029;-82
2022/10/19 10:05:13;;;;;;;;;8.33;6.00;;;;;;;;4958539;28;63145;-82
2022/10/19 10:07:39;;;;;;;;;11.67;10.33;;;;;;;;4989904;28;61980;-82
2022/10/19 10:10:09;;;;;;;;;12.50;8.25;;;;;;;;5061382;28;61756;-82
2022/10/19 10:12:35;;;;;;;;;9.25;7.50;;;;;;;;5043602;28;61864;-82
2022/10/19 10:15:02;;;;;;;;;11.25;8.75;;;;;;;;5044343;28;61794;-80
2022/10/19 10:17:29;;;;;;;;;7.50;7.00;;;;;;;;5023424;28;61765;-82
2022/10/19 10:19:57;;;;;;;;;9.33;8.33;;;;;;;;5041042;28;61854;-81
2022/10/19 10:22:24;;;;;;;;;9.00;7.50;;;;;;;;5025057;28;61949;-83
2022/10/19 10:24:51;;;;;;;;;8.67;7.00;;;;;;;;5044408;28;63138;-82
2022/10/19 10:27:24;;;;;;;;;6.75;6.75;;;;;;;;5025926;28;61758;-81
2022/10/19 10:29:54;;;;;;;;;10.00;7.50;;;;;;;;5044944;28;61900;-82
2022/10/19 10:32:20;;;;;;;;;11.50;8.50;;;;;;;;5044780;28;61814;-82
2022/10/19 10:34:47;;;;;;;;;8.50;8.50;;;;;;;;5025717;28;63994;-81
2022/10/19 10:37:31;;;;;;;;;7.67;7.00;;;;;;;;5044206;28;61881;-82
2022/10/19 10:39:57;;;;;;;;;5.00;4.67;;;;;;;;5054598;28;61804;-82
2022/10/19 10:42:39;;;;;;;;;9.33;8.33;;;;;;;;5045854;28;61866;-81
2022/10/19 10:45:15;;;;;;;;;7.00;7.00;;;;;;;;5058823;28;62860;-81
2022/10/19 10:47:44;;;;;;;;;7.00;6.00;;;;;;;;5064357;28;62078;-82
2022/10/19 10:50:21;;;;;;;;;10.67;8.00;;;;;;;;5037944;28;62065;-81
2022/10/19 10:53:00;;;;;;;;;7.00;7.00;;;;;;;;5012369;28;61881;-79
2022/10/19 10:55:28;;;;;;;;;8.00;7.33;;;;;;;;5003514;28;62163;-79
2022/10/19 10:58:01;;;;;;;;;9.67;7.33;;;;;;;;5000618;28;61967;-79
2022/10/19 11:00:27;;;;;;;;;10.33;6.33;;;;;;;;4984329;28;61820;-79
2022/10/19 11:02:52;;;;;;;;;7.67;6.67;;;;;;;;5012192;28;61886;-79
2022/10/19 11:05:21;;;;;;;;;9.67;8.67;;;;;;;;5023242;28;62224;-79
2022/10/19 11:07:50;;;;;;;;;7.67;7.00;;;;;;;;5024013;28;61879;-78
2022/10/19 11:10:23;;;;;;;;;6.67;6.00;;;;;;;;5019388;28;61888;-79
2022/10/19 11:12:52;;;;;;;;;8.00;6.33;;;;;;;;5005087;28;61843;-79
2022/10/19 11:15:24;;;;;;;;;12.33;7.00;;;;;;;;5003219;28;61704;-81
2022/10/19 11:18:13;;;;;;;;;7.67;7.67;;;;;;;;5003919;28;61877;-78
2022/10/19 11:20:42;;;;;;;;;7.00;7.00;;;;;;;;4995221;28;62084;-78
2022/10/19 11:23:14;;;;;;;;;8.00;7.00;;;;;;;;5002442;28;61713;-78
2022/10/19 11:26:00;;;;;;;;;6.00;5.00;;;;;;;;5001718;28;62609;-79
2022/10/19 11:28:45;;;;;;;;;12.00;6.00;;;;;;;;5003568;28;61857;-77
2022/10/19 11:31:15;;;;;;;;;5.67;5.67;;;;;;;;5003523;28;61892;-78
2022/10/19 11:33:40;;;;;;;;;9.00;6.33;;;;;;;;5006021;28;61811;-79
2022/10/19 11:36:15;;;;;;;;;7.67;6.67;;;;;;;;5011856;28;63860;-79
2022/10/19 11:38:54;;;;;;;;;6.00;5.67;;;;;;;;5006927;28;62435;-79
2022/10/19 11:41:36;;;;;;;;;6.00;6.00;;;;;;;;5011231;28;61857;-78
2022/10/19 11:44:11;;;;;;;;;6.00;5.67;;;;;;;;5009479;28;62194;-79
2022/10/19 11:46:59;;;;;;;;;8.00;7.00;;;;;;;;5009966;28;62694;-79
2022/10/19 11:49:39;;;;;;;;;9.67;6.67;;;;;;;;5010730;28;62030;-78
2022/10/19 11:52:22;;;;;;;;;6.33;5.33;;;;;;;;5014356;28;61907;-78
2022/10/19 11:55:14;;;;;;;;;6.67;4.67;;;;;;;;5033968;28;61793;-79
2022/10/19 11:57:46;;;;;;;;;5.00;5.00;;;;;;;;5033339;28;64070;-79
2022/10/19 12:00:15;;;;;;;;;8.67;7.00;;;;;;;;5034314;28;62098;-79
2022/10/19 12:02:49;;;;;;;;;6.00;5.00;;;;;;;;5054576;28;61770;-80
2022/10/19 12:05:15;;;;;;;;;5.00;5.00;;;;;;;;5044966;28;61801;-78
2022/10/19 12:08:03;;;;;;;;;8.00;5.67;;;;;;;;5043945;28;63596;-78
2022/10/19 12:10:48;;;;;;;;;7.33;6.67;;;;;;;;5040250;28;61871;-77
2022/10/19 12:13:16;;;;;;;;;5.33;5.33;;;;;;;;5050313;28;62107;-77
2022/10/19 12:15:42;;;;;;;;;7.00;7.00;;;;;;;;5033040;28;61924;-78
2022/10/19 12:18:18;;;;;;;;;7.00;7.00;;;;;;;;5052816;28;61812;-77
2022/10/19 12:20:48;;;;;;;;;9.00;8.00;;;;;;;;5035189;28;61919;-77
2022/10/19 12:23:46;;;;;;;;;9.33;6.67;;;;;;;;5054807;28;61787;-78
2022/10/19 12:26:16;;;;;;;;;5.67;5.33;;;;;;;;4985925;28;61959;-77
2022/10/19 12:29:02;;;;;;;;;8.33;7.33;;;;;;;;4987399;28;62024;-78
2022/10/19 12:31:28;;;;;;;;;8.00;8.00;;;;;;;;4972100;28;61964;-78
2022/10/19 12:33:56;;;;;;;;;9.33;6.67;;;;;;;;4987659;28;61855;-77
2022/10/19 12:36:33;;;;;;;;;6.67;6.67;;;;;;;;4988466;28;62004;-77
2022/10/19 12:39:01;;;;;;;;;5.67;4.67;;;;;;;;4972253;28;64807;-77
2022/10/19 12:41:26;;;;;;;;;9.33;6.67;;;;;;;;4988794;28;61995;-78
2022/10/19 12:44:00;;;;;;;;;8.67;6.67;;;;;;;;4979661;28;61896;-78
2022/10/19 12:46:34;;;;;;;;;8.33;7.00;;;;;;;;4979494;28;62356;-78
2022/10/19 12:49:18;;;;;;;;;5.00;5.00;;;;;;;;4979204;28;62066;-77
2022/10/19 12:51:44;;;;;;;;;10.33;7.67;;;;;;;;4979992;28;61919;-77
2022/10/19 12:54:11;;;;;;;;;11.33;7.67;;;;;;;;4963823;28;62047;-77
2022/10/19 12:56:47;;;;;;;;;10.00;7.00;;;;;;;;4964001;28;62310;-77
2022/10/19 12:59:21;;;;;;;;;9.33;6.67;;;;;;;;4979210;28;63452;-77
2022/10/19 13:01:46;;;;;;;;;10.67;8.67;;;;;;;;5009936;28;61903;-77
2022/10/19 13:04:14;;;;;;;;;7.67;6.00;;;;;;;;5058725;28;61991;-77
2022/10/19 13:06:43;;;;;;;;;7.67;6.67;;;;;;;;5062176;28;61965;-77
2022/10/19 13:09:18;;;;;;;;;9.67;8.33;;;;;;;;5061544;28;62955;-77
2022/10/19 13:12:03;;;;;;;;;8.00;7.00;;;;;;;;5061960;28;61903;-77
2022/10/19 13:14:42;;;;;;;;;9.00;5.00;;;;;;;;5048798;28;62016;-77
2022/10/19 13:17:08;;;;;;;;;8.00;7.00;;;;;;;;5034700;28;61849;-77
2022/10/19 13:19:33;;;;;;;;;9.00;8.33;;;;;;;;5041027;28;61762;-78
2022/10/19 13:22:19;;;;;;;;;8.00;6.00;;;;;;;;5041571;28;61743;-77
2022/10/19 13:25:04;;;;;;;;;7.33;6.33;;;;;;;;5040398;28;62136;-78
2022/10/19 13:27:34;;;;;;;;;12.33;8.00;;;;;;;;5041734;28;61892;-78
2022/10/19 13:29:59;;;;;;;;;7.67;5.67;;;;;;;;5041129;28;61800;-78
2022/10/19 13:32:34;;;;;;;;;5.33;5.00;;;;;;;;5041815;28;62030;-77
2022/10/19 13:35:17;;;;;;;;;7.33;7.00;;;;;;;;5041663;28;61705;-78
2022/10/19 13:37:43;;;;;;;;;8.00;7.00;;;;;;;;5021716;28;61925;-77
2022/10/19 13:40:19;;;;;;;;;8.67;6.00;;;;;;;;5021139;28;62046;-77
2022/10/19 13:42:44;;;;;;;;;3.67;3.00;;;;;;;;5021752;28;61825;-77
2022/10/19 13:45:20;;;;;;;;;11.33;5.67;;;;;;;;5021687;28;61841;-78
2022/10/19 13:47:49;;;;;;;;;11.00;7.67;;;;;;;;5003986;28;61831;-78
2022/10/19 13:50:32;;;;;;;;;10.67;6.00;;;;;;;;5020851;28;61693;-78
2022/10/19 13:52:58;;;;;;;;;8.33;6.33;;;;;;;;5021094;28;61705;-78
2022/10/19 13:55:32;;;;;;;;;10.00;6.67;;;;;;;;5003837;28;61834;-77
2022/10/19 13:58:12;;;;;;;;;5.67;5.00;;;;;;;;5024108;28;62089;-77
2022/10/19 14:00:56;;;;;;;;;8.33;8.33;;;;;;;;5024726;28;61893;-77
2022/10/19 14:03:34;;;;;;;;;5.67;5.33;;;;;;;;5028202;28;61934;-77
2022/10/19 14:06:14;;;;;;;;;6.00;6.00;;;;;;;;5006603;28;61765;-78
2022/10/19 14:08:43;;;;;;;;;7.67;6.00;;;;;;;;5007291;28;61749;-78
2022/10/19 14:11:20;;;;;;;;;6.67;5.00;;;;;;;;5023929;28;61917;-77
2022/10/19 14:14:05;;;;;;;;;6.00;6.00;;;;;;;;5031607;28;61758;-78
2022/10/19 14:16:30;;;;;;;;;8.00;6.00;;;;;;;;5044901;28;61806;-78
2022/10/19 14:18:55;;;;;;;;;4.00;4.00;;;;;;;;5044418;28;62117;-77
2022/10/19 14:21:31;;;;;;;;;4.00;4.00;;;;;;;;5044139;28;61821;-78
2022/10/19 14:23:56;;;;;;;;;10.33;7.33;;;;;;;;5026465;28;61817;-77
2022/10/19 14:26:24;;;;;;;;;5.67;4.00;;;;;;;;5026225;28;61811;-77
2022/10/19 14:28:53;;;;;;;;;8.00;8.00;;;;;;;;5045031;28;61628;-78
2022/10/19 14:31:20;;;;;;;;;6.00;5.00;;;;;;;;5043858;28;61841;-78
2022/10/19 14:33:47;;;;;;;;;5.67;5.67;;;;;;;;5044497;28;61939;-77
2022/10/19 14:36:17;;;;;;;;;7.00;5.00;;;;;;;;5044172;28;61674;-77
2022/10/19 14:38:42;;;;;;;;;3.33;3.33;;;;;;;;5044214;28;61774;-79
2022/10/19 14:41:26;;;;;;;;;8.33;7.00;;;;;;;;5034161;28;63489;-79
2022/10/19 14:43:51;;;;;;;;;6.67;6.67;;;;;;;;5058763;28;61889;-79
2022/10/19 14:46:16;;;;;;;;;2.67;1.33;;;;;;;;5058132;28;61858;-78